Huvudsida
METAR-TAF:

METAR-TAF

Flygplatser :

Damascus Int. Airport

Damaskus, Syrien

latitud: 33-25N, longitud: 036-31E, höjd: 608 m

Aktuellt väderrapport

Denna rapport gjordes för 55 minuter sedan, klockan 09:00 UTC
Vind 6 kt från väst
Temperatur 31°C
Fuktighet 31%
Tryck 1008 hPa
Sikt 10 km eller mer
Inga moln under 1 500 m eller inga cumulonimbus

METAR: OSDI 190900Z 27006KT CAVOK 31/12 Q1008

Tid: 12:55 (09:55 UTC)

Väderprognos

Denna rapport gjordes för 5 timmar och 55 minuter sedan, klockan 04:00 UTC
Prognos gäller från 19 kl. 06 UTC till 19 kl. 20 UTC
Vind 12 kt från sydväst
Sikt 10 km eller mer
Inga moln under 1 500 m eller inga cumulonimbus
Temporärt
från 19 kl. 12 UTC till 19 kl. 18 UTC
Vind 15 kt från väst i byarna ända upp till 25 kt
Sikt 10 km eller mer
Få moln på en höjd av 3000 ft

TAF: OSDI 190400Z 19062012 22012KT CAVOK TEMPO 1912/1918 28015G25KT 9999 FEW030

Aktuella väderrapporter och prognoser från 4000 flygplatser (METAR- och TAF-rapporter).

De tillgängliga stationerna syns som gula och röda prickar på kartan.

För musen över prickarna för att se namnen på stationerna.

Klicka sedan för att få väderrapporter och prognoser.

För att ändra kartan: Klicka på de gröna knapparna med ett svart kors på för att zooma in; den gröna knappen med ett streck på för att zooma ut; eller på de gröna pilarna för angränsande kartor.


METAR-TAF: